Time;durP1;ratioP1;P1;durP2;ratioP2;P2;SDS_P1;SDS_P2;PMS_P1;PMS_P2;Temp;Humidity;BMP_temperature;BMP_pressure;BME280_temperature;BME280_humidity;BME280_pressure;Samples;Min_cycle;Max_cycle;Signal;HPM_P1;HPM_P2
2022/07/10 00:00:21;;;;;;;2.30;0.90;;;;;;;12.33;80.57;98559.70;104991;1271;74252;-25
2022/07/10 00:02:48;;;;;;;1.70;0.90;;;;;;;12.71;80.70;98559.49;105091;1271;61929;-25
2022/07/10 00:05:16;;;;;;;2.80;1.00;;;;;;;13.02;79.29;98555.81;104765;1271;61096;-25
2022/07/10 00:07:46;;;;;;;1.40;0.70;;;;;;;12.92;79.03;98555.41;104937;1271;75314;-25
2022/07/10 00:10:14;;;;;;;4.60;1.20;;;;;;;12.68;79.78;98554.59;104967;1271;77231;-25
2022/07/10 00:12:41;;;;;;;4.10;1.10;;;;;;;12.44;80.51;98552.94;104918;1271;75755;-25
2022/07/10 00:15:09;;;;;;;1.10;0.70;;;;;;;12.21;81.10;98549.83;105174;1271;61066;-25
2022/07/10 00:17:38;;;;;;;1.40;0.90;;;;;;;12.53;80.87;98541.95;105165;1271;62153;-25
2022/07/10 00:20:07;;;;;;;2.00;1.00;;;;;;;12.89;79.78;98538.71;105062;1271;75695;-25
2022/07/10 00:22:35;;;;;;;7.30;1.30;;;;;;;12.84;78.98;98533.97;105076;1270;77085;-25
2022/07/10 00:25:04;;;;;;;5.10;1.30;;;;;;;12.57;79.69;98533.89;105119;1271;75564;-25
2022/07/10 00:27:32;;;;;;;1.30;0.90;;;;;;;12.31;80.86;98533.60;104887;1271;61045;-25
2022/07/10 00:29:59;;;;;;;3.60;0.70;;;;;;;12.07;82.11;98529.45;105066;1271;61651;-24
2022/07/10 00:32:27;;;;;;;1.70;1.10;;;;;;;12.43;81.39;98529.30;104923;1272;75394;-24
2022/07/10 00:34:54;;;;;;;1.70;1.10;;;;;;;12.86;79.19;98521.27;105135;1271;76713;-25
2022/07/10 00:37:21;;;;;;;2.00;1.20;;;;;;;12.82;78.66;98520.61;104962;1271;75438;-24
2022/07/10 00:39:51;;;;;;;3.60;1.50;;;;;;;12.60;79.29;98515.83;105028;1271;61189;-25
2022/07/10 00:42:19;;;;;;;1.40;1.20;;;;;;;12.32;80.48;98516.09;105121;1271;61006;-24
2022/07/10 00:44:46;;;;;;;2.20;0.80;;;;;;;12.11;81.11;98513.42;104924;1271;76525;-24
2022/07/10 00:47:17;;;;;;;1.60;1.10;;;;;;;12.43;80.72;98513.67;104777;1271;77010;-24
2022/07/10 00:49:47;;;;;;;3.40;1.10;;;;;;;12.81;78.79;98513.99;105073;1271;75327;-25
2022/07/10 00:52:16;;;;;;;2.90;1.10;;;;;;;12.75;78.73;98508.83;105160;1269;61023;-24
2022/07/10 00:54:45;;;;;;;3.40;1.60;;;;;;;12.50;79.50;98507.52;105131;1271;62800;-24
2022/07/10 00:57:16;;;;;;;5.00;1.50;;;;;;;12.25;80.02;98507.19;105139;1271;74721;-24
2022/07/10 00:59:47;;;;;;;2.60;1.10;;;;;;;12.05;81.07;98502.16;104882;1271;75889;-24
2022/07/10 01:02:15;;;;;;;2.20;1.10;;;;;;;12.42;80.56;98499.64;104935;1271;74380;-24
2022/07/10 01:04:43;;;;;;;3.10;1.10;;;;;;;12.81;78.99;98498.45;105161;1271;63327;-25
2022/07/10 01:07:15;;;;;;;2.10;1.20;;;;;;;12.81;78.27;98498.45;105145;1271;61966;-24
2022/07/10 01:09:43;;;;;;;6.70;1.20;;;;;;;12.57;78.78;98499.59;105170;1271;76761;-24
2022/07/10 01:12:11;;;;;;;3.90;1.40;;;;;;;12.28;79.72;98497.22;105124;1271;75678;-24
2022/07/10 01:14:39;;;;;;;0.80;0.80;;;;;;;12.03;81.34;98491.54;105145;1270;75432;-24
2022/07/10 01:17:10;;;;;;;1.90;1.10;;;;;;;12.37;80.57;98488.27;105136;1271;63082;-24
2022/07/10 01:19:37;;;;;;;5.30;1.20;;;;;;;12.76;78.62;98482.39;104850;1271;61793;-24
2022/07/10 01:22:04;;;;;;;1.70;1.30;;;;;;;12.74;78.16;98487.17;105102;1271;76556;-25
2022/07/10 01:24:32;;;;;;;2.60;1.30;;;;;;;12.51;78.80;98488.11;104982;1271;77091;-24
2022/07/10 01:27:00;;;;;;;4.10;1.20;;;;;;;12.25;79.37;98486.02;104935;1271;74278;-25
2022/07/10 01:29:27;;;;;;;1.10;0.80;;;;;;;12.00;80.34;98484.19;104894;1271;63480;-24
2022/07/10 01:31:54;;;;;;;3.30;1.00;;;;;;;12.28;80.45;98485.17;104913;1271;62766;-24
2022/07/10 01:34:23;;;;;;;2.40;1.00;;;;;;;12.62;78.88;98484.57;104919;1271;74759;-24
2022/07/10 01:36:50;;;;;;;2.20;1.30;;;;;;;12.52;78.43;98481.75;104843;1271;74902;-24
2022/07/10 01:39:18;;;;;;;1.70;1.20;;;;;;;12.23;79.59;98483.90;104943;1271;75180;-24
2022/07/10 01:41:45;;;;;;;7.80;1.50;;;;;;;11.95;80.75;98476.84;105176;1271;62602;-24
2022/07/10 01:44:12;;;;;;;2.50;1.10;;;;;;;11.75;81.95;98478.02;105078;1271;61797;-24
2022/07/10 01:46:45;;;;;;;5.50;1.20;;;;;;;12.10;81.09;98478.49;105014;1271;76323;-24
2022/07/10 01:49:13;;;;;;;2.20;1.00;;;;;;;12.48;79.14;98480.27;104724;1271;76965;-24
2022/07/10 01:51:40;;;;;;;6.40;1.40;;;;;;;12.43;78.98;98480.38;104893;1271;74066;-24
2022/07/10 01:54:08;;;;;;;4.50;1.30;;;;;;;12.22;79.51;98476.65;105074;1271;61757;-24
2022/07/10 01:56:35;;;;;;;4.60;1.20;;;;;;;11.98;80.76;98478.13;104840;1271;61083;-24
2022/07/10 01:59:03;;;;;;;1.60;1.00;;;;;;;11.78;81.60;98481.70;104923;1271;75523;-24
2022/07/10 02:01:31;;;;;;;2.30;1.30;;;;;;;12.12;80.80;98478.13;104867;1271;76732;-24
2022/07/10 02:06:46;;;;;;;3.50;1.30;;;;;;;12.48;78.24;98468.11;104992;1270;63259;-25
2022/07/10 02:09:14;;;;;;;3.70;1.10;;;;;;;12.22;79.00;98472.35;104784;1271;61638;-25
2022/07/10 02:11:42;;;;;;;1.60;1.10;;;;;;;11.94;80.15;98471.80;104911;1271;76711;-24
2022/07/10 02:14:09;;;;;;;5.50;0.90;;;;;;;11.72;81.14;98472.77;104832;1271;75078;-24
2022/07/10 02:16:37;;;;;;;2.80;1.30;;;;;;;12.05;80.66;98467.48;104845;1271;75089;-24
2022/07/10 02:19:05;;;;;;;1.90;1.10;;;;;;;12.47;78.89;98463.24;104800;1271;62001;-25
2022/07/10 02:21:32;;;;;;;5.40;1.30;;;;;;;12.45;78.88;98461.23;104968;1271;63032;-24
2022/07/10 02:24:00;;;;;;;6.00;1.50;;;;;;;12.24;79.37;98459.29;105008;1271;76701;-24
2022/07/10 02:26:27;;;;;;;10.90;1.50;;;;;;;12.00;80.50;98456.91;104936;1270;76967;-23
2022/07/10 02:28:54;;;;;;;3.70;0.80;;;;;;;11.80;81.21;98457.23;104815;1271;74342;-23
2022/07/10 02:31:22;;;;;;;2.50;1.00;;;;;;;12.14;80.69;98455.33;105050;1271;61092;-23
2022/07/10 02:34:08;;;;;;;1.40;1.00;;;;;;;12.54;78.65;98453.05;105035;1271;63326;-23
2022/07/10 02:36:36;;;;;;;2.70;1.20;;;;;;;12.49;78.34;98452.81;105131;1271;76744;-23
2022/07/10 02:39:04;;;;;;;3.60;1.50;;;;;;;12.24;79.83;98448.80;105128;1271;75701;-25
2022/07/10 02:41:32;;;;;;;4.70;1.80;;;;;;;12.05;80.47;98447.75;104799;1271;74280;-24
2022/07/10 02:43:59;;;;;;;2.50;1.00;;;;;;;11.86;81.50;98445.63;104949;1271;61057;-26
2022/07/10 02:46:27;;;;;;;4.50;1.10;;;;;;;12.24;80.97;98439.45;105171;1271;61096;-23
2022/07/10 02:48:56;;;;;;;2.50;1.10;;;;;;;12.64;79.11;98438.13;105006;1271;75652;-23
2022/07/10 02:51:24;;;;;;;1.50;1.20;;;;;;;12.60;79.07;98442.31;105006;1271;77011;-23
2022/07/10 02:53:51;;;;;;;3.30;1.70;;;;;;;12.42;79.86;98437.65;105081;1271;74110;-23
2022/07/10 02:56:18;;;;;;;6.20;1.50;;;;;;;12.24;80.69;98435.30;104822;1274;274633;-23
2022/07/10 02:58:46;;;;;;;1.20;0.90;;;;;;;11.98;82.06;98438.06;104855;1271;61767;-23
2022/07/10 03:01:13;;;;;;;3.30;1.20;;;;;;;12.35;81.04;98440.95;104955;1271;76572;-23
2022/07/10 03:03:41;;;;;;;1.00;1.00;;;;;;;12.87;79.10;98435.67;105100;1271;75908;-23
2022/07/10 03:06:08;;;;;;;2.60;1.60;;;;;;;13.19;77.69;98443.39;104927;1271;75368;-23
2022/07/10 03:08:36;;;;;;;3.60;1.30;;;;;;;13.32;77.36;98439.35;104977;1271;63065;-23
2022/07/10 03:11:03;;;;;;;4.20;1.50;;;;;;;13.42;76.90;98440.45;104968;1270;63145;-24
2022/07/10 03:13:31;;;;;;;3.40;1.20;;;;;;;13.50;76.83;98436.44;105071;1271;74925;-23
2022/07/10 03:15:58;;;;;;;5.20;1.30;;;;;;;14.11;75.34;98430.80;105056;1271;76809;-23
2022/07/10 03:18:26;;;;;;;4.00;1.40;;;;;;;14.72;72.70;98423.54;105035;1271;74942;-23
2022/07/10 03:20:54;;;;;;;5.50;1.40;;;;;;;14.90;72.08;98420.30;104819;1272;62947;-23
2022/07/10 03:23:23;;;;;;;3.30;1.40;;;;;;;14.90;72.33;98422.66;105075;1271;61226;-23
2022/07/10 03:25:50;;;;;;;5.90;1.80;;;;;;;14.76;72.68;98417.55;104843;1271;76490;-24
2022/07/10 03:28:21;;;;;;;5.70;1.50;;;;;;;14.62;73.23;98417.02;104789;1271;75147;-24
2022/07/10 03:30:49;;;;;;;2.10;1.10;;;;;;;14.54;73.78;98415.66;104980;1271;74387;-24
2022/07/10 03:33:17;;;;;;;2.00;1.20;;;;;;;15.15;72.12;98412.65;104813;1271;61181;-24
2022/07/10 03:35:45;;;;;;;5.20;1.40;;;;;;;15.72;69.76;98411.80;105129;1271;61209;-24
2022/07/10 03:38:12;;;;;;;3.60;1.40;;;;;;;15.84;69.40;98416.59;104793;1271;76887;-24
2022/07/10 03:40:39;;;;;;;3.50;1.60;;;;;;;15.79;69.25;98416.08;105076;1272;76801;-24
2022/07/10 03:43:06;;;;;;;3.50;1.20;;;;;;;15.75;70.08;98415.15;105077;1271;75352;-24
2022/07/10 03:45:34;;;;;;;3.20;1.20;;;;;;;15.79;69.73;98415.09;104863;1271;61719;-24
2022/07/10 03:48:01;;;;;;;4.70;1.40;;;;;;;15.88;69.82;98411.38;104741;1271;62999;-24
2022/07/10 03:50:28;;;;;;;4.50;1.30;;;;;;;15.94;69.67;98406.05;104879;1271;77041;-24
2022/07/10 03:52:56;;;;;;;5.90;1.10;;;;;;;16.68;68.27;98407.93;104746;1272;76474;-24
2022/07/10 03:55:23;;;;;;;3.30;1.00;;;;;;;17.40;65.30;98407.15;104746;1271;75336;-24
2022/07/10 03:57:53;;;;;;;1.40;1.10;;;;;;;17.52;64.00;98409.95;104998;1271;61808;-24
2022/07/10 04:00:25;;;;;;;1.80;1.10;;;;;;;17.49;63.98;98416.11;104828;1271;62041;-24
2022/07/10 04:02:56;;;;;;;5.90;1.30;;;;;;;17.34;64.53;98419.33;104920;1271;76636;-24
2022/07/10 04:05:24;;;;;;;2.60;1.10;;;;;;;17.28;64.98;98423.11;105068;1271;75210;-24
2022/07/10 04:07:52;;;;;;;1.20;1.10;;;;;;;17.33;65.19;98425.77;104738;1271;75219;-24
2022/07/10 04:10:19;;;;;;;5.40;1.40;;;;;;;17.33;65.76;98426.81;105023;1271;62083;-24
2022/07/10 04:12:48;;;;;;;4.20;1.50;;;;;;;17.32;65.44;98431.50;104878;1271;61762;-24
2022/07/10 04:15:16;;;;;;;3.40;1.30;;;;;;;17.13;66.48;98426.04;104956;1271;75237;-24
2022/07/10 04:17:43;;;;;;;2.40;1.20;;;;;;;16.99;68.01;98433.77;104779;1272;76735;-25
2022/07/10 04:22:14;;;;;;;4.50;1.20;;;;;;;17.22;67.11;98427.08;101806;1310;600332;-23
2022/07/10 04:24:42;;;;;;;4.20;1.30;;;;;;;17.87;64.99;98426.99;104297;1284;61790;-23
2022/07/10 04:27:09;;;;;;;4.40;1.20;;;;;;;17.95;64.43;98426.93;104226;1287;63056;-23
2022/07/10 04:29:37;;;;;;;4.50;1.30;;;;;;;17.77;64.63;98429.08;104472;1284;74049;-23
2022/07/10 04:32:05;;;;;;;2.20;1.30;;;;;;;17.79;64.23;98424.84;104337;1287;76985;-23
2022/07/10 04:34:32;;;;;;;2.90;1.40;;;;;;;17.70;64.49;98427.11;104147;1287;74904;-23
2022/07/10 04:37:00;;;;;;;5.80;1.40;;;;;;;17.71;65.70;98429.26;103762;1283;355250;-23
2022/07/10 04:39:27;;;;;;;1.30;1.20;;;;;;;17.67;64.61;98427.84;104479;1281;62927;-23
2022/07/10 04:41:54;;;;;;;1.50;1.10;;;;;;;17.51;64.72;98423.76;104419;1284;75101;-23
2022/07/10 04:44:21;;;;;;;4.40;1.50;;;;;;;17.33;64.87;98421.84;104449;1284;77026;-23
2022/07/10 04:46:49;;;;;;;2.10;1.20;;;;;;;17.38;66.25;98422.02;104341;1281;75684;-23
2022/07/10 04:49:16;;;;;;;2.00;1.20;;;;;;;17.31;65.62;98423.00;103982;1284;61947;-24
2022/07/10 04:51:44;;;;;;;4.80;1.50;;;;;;;17.19;65.76;98425.80;104117;1284;61413;-24
2022/07/10 04:54:13;;;;;;;2.60;1.50;;;;;;;17.14;66.26;98421.33;104522;1281;75688;-24
2022/07/10 04:56:40;;;;;;;2.60;1.50;;;;;;;17.04;66.70;98418.98;104036;1284;75940;-24
2022/07/10 04:59:09;;;;;;;3.50;1.40;;;;;;;16.86;67.48;98417.86;104060;1284;75422;-24
2022/07/10 05:01:37;;;;;;;5.50;1.80;;;;;;;16.68;67.71;98417.45;104080;1284;62811;-24
2022/07/10 05:04:04;;;;;;;3.00;1.60;;;;;;;16.65;68.66;98416.88;103853;1284;63079;-24
2022/07/10 05:06:32;;;;;;;8.30;0.90;;;;;;;16.83;68.30;98417.56;103831;1284;75603;-24
2022/07/10 05:08:59;;;;;;;2.70;1.20;;;;;;;17.62;66.11;98416.45;104048;1284;76455;-24
2022/07/10 05:11:27;;;;;;;2.50;1.10;;;;;;;18.35;63.09;98413.21;104443;1284;74132;-24
2022/07/10 05:13:54;;;;;;;5.00;1.20;;;;;;;18.66;61.42;98406.69;104429;1284;61959;-24
2022/07/10 05:16:24;;;;;;;3.70;1.20;;;;;;;18.68;61.47;98404.96;103816;1284;62515;-24
2022/07/10 05:18:51;;;;;;;1.40;1.10;;;;;;;18.69;61.54;98409.88;104151;1284;75731;-24
2022/07/10 05:21:18;;;;;;;2.50;1.10;;;;;;;18.55;61.76;98411.70;104405;1284;75746;-24
2022/07/10 05:23:46;;;;;;;2.80;1.00;;;;;;;18.57;62.21;98412.88;104121;1284;73973;-24
2022/07/10 05:26:14;;;;;;;3.20;1.40;;;;;;;18.58;61.67;98414.67;104274;1284;63065;-24
2022/07/10 05:28:41;;;;;;;1.40;1.10;;;;;;;18.55;61.85;98413.63;104229;1286;62270;-24
2022/07/10 05:31:08;;;;;;;2.60;1.30;;;;;;;18.37;62.63;98407.80;104105;1284;76138;-24
2022/07/10 05:33:38;;;;;;;4.10;1.10;;;;;;;18.15;63.18;98408.60;104383;1280;76932;-24
2022/07/10 05:36:07;;;;;;;2.50;1.60;;;;;;;18.07;63.38;98406.91;104622;1278;75414;-24
2022/07/10 05:38:34;;;;;;;3.50;1.20;;;;;;;17.88;63.71;98405.13;104638;1277;61594;-24
2022/07/10 05:41:02;;;;;;;6.90;1.10;;;;;;;17.80;64.69;98410.18;104710;1277;61157;-25
2022/07/10 05:43:30;;;;;;;1.60;1.00;;;;;;;17.77;64.18;98409.73;104636;1277;75692;-24
2022/07/10 05:45:57;;;;;;;6.20;1.50;;;;;;;17.83;64.86;98406.82;104677;1277;74849;-24
2022/07/10 05:48:25;;;;;;;3.20;1.10;;;;;;;17.88;64.91;98409.02;104442;1277;75128;-24
2022/07/10 05:50:52;;;;;;;1.80;1.30;;;;;;;17.99;63.81;98406.91;104410;1277;63078;-24
2022/07/10 05:53:19;;;;;;;6.50;1.30;;;;;;;18.18;63.12;98401.00;104412;1278;61120;-24
2022/07/10 05:55:48;;;;;;;3.00;1.20;;;;;;;18.35;63.13;98395.73;104714;1277;75866;-24
2022/07/10 05:58:16;;;;;;;2.10;1.30;;;;;;;18.51;63.36;98394.44;104671;1277;76026;-24
2022/07/10 06:00:44;;;;;;;7.10;1.20;;;;;;;18.73;62.23;98388.69;104621;1280;74403;-24
2022/07/10 06:03:11;;;;;;;4.40;1.10;;;;;;;18.91;61.02;98388.55;104684;1277;62007;-24
2022/07/10 06:05:39;;;;;;;3.80;1.10;;;;;;;19.06;61.77;98392.86;104400;1281;61235;-24
2022/07/10 06:08:10;;;;;;;3.60;1.10;;;;;;;19.15;59.10;98386.05;104663;1277;75700;-24
2022/07/10 06:10:39;;;;;;;1.70;1.00;;;;;;;19.29;58.75;98387.18;104580;1278;77025;-24
2022/07/10 06:13:07;;;;;;;2.50;1.10;;;;;;;19.54;58.01;98383.80;104698;1278;73524;-23
2022/07/10 06:15:34;;;;;;;2.50;1.20;;;;;;;19.70;58.34;98383.66;104633;1278;63068;-23
2022/07/10 06:18:02;;;;;;;3.10;1.10;;;;;;;20.05;57.63;98385.38;104693;1278;63051;-23
2022/07/10 06:20:30;;;;;;;2.20;1.00;;;;;;;20.36;57.05;98382.41;104455;1278;74442;-24
2022/07/10 06:22:58;;;;;;;2.30;1.10;;;;;;;20.53;56.34;98382.95;104659;1277;77006;-24
2022/07/10 06:25:25;;;;;;;1.70;1.20;;;;;;;20.47;56.02;98384.55;104613;1277;75624;-24
2022/07/10 06:27:53;;;;;;;2.00;0.90;;;;;;;20.27;57.30;98390.43;104691;1277;61885;-24
2022/07/10 06:30:20;;;;;;;5.00;1.20;;;;;;;20.02;57.04;98392.14;104728;1278;63205;-24
2022/07/10 06:32:47;;;;;;;6.80;1.30;;;;;;;20.16;57.62;98397.95;104687;1277;75803;-24
2022/07/10 06:35:15;;;;;;;2.20;1.40;;;;;;;20.17;56.78;98398.70;104682;1277;77004;-24
2022/07/10 06:37:44;;;;;;;3.20;1.10;;;;;;;19.98;56.71;98398.02;104675;1277;74260;-24
2022/07/10 06:40:17;;;;;;;2.50;1.00;;;;;;;20.42;55.94;98391.64;104579;1277;62729;-24
2022/07/10 06:42:44;;;;;;;7.00;1.20;;;;;;;20.54;54.92;98390.12;104642;1277;61055;-24
2022/07/10 06:45:12;;;;;;;1.80;1.00;;;;;;;20.41;54.87;98390.91;104699;1277;75638;-24
2022/07/10 06:47:59;;;;;;;4.20;1.20;;;;;;;20.21;55.25;98391.88;104470;1277;75952;-24
2022/07/10 06:50:34;;;;;;;2.20;1.10;;;;;;;19.93;55.61;98400.05;104670;1278;75132;-24
2022/07/10 06:53:02;;;;;;;2.60;0.90;;;;;;;20.14;55.55;98403.66;104675;1278;62112;-24
2022/07/10 06:55:30;;;;;;;1.00;0.80;;;;;;;20.37;54.34;98402.63;104678;1277;61028;-23
2022/07/10 06:57:58;;;;;;;6.40;0.90;;;;;;;20.38;53.42;98406.48;104729;1277;75790;-23
2022/07/10 07:00:25;;;;;;;1.90;0.90;;;;;;;20.55;53.32;98398.42;104635;1277;76764;-23
2022/07/10 07:02:52;;;;;;;2.30;1.00;;;;;;;20.65;53.02;98397.42;104773;1277;75403;-23
2022/07/10 07:05:20;;;;;;;1.00;0.80;;;;;;;20.71;52.54;98395.02;104614;1277;63011;-23
2022/07/10 07:07:48;;;;;;;2.00;1.00;;;;;;;20.70;51.89;98394.16;104790;1275;63021;-23
2022/07/10 07:10:15;;;;;;;2.70;0.90;;;;;;;20.94;51.24;98393.48;104641;1277;75838;-23
2022/07/10 07:12:43;;;;;;;2.70;1.10;;;;;;;21.00;50.13;98390.16;104611;1277;76682;-24
2022/07/10 07:15:10;;;;;;;3.10;0.90;;;;;;;21.30;50.74;98387.45;104770;1277;75416;-23
2022/07/10 07:17:56;;;;;;;3.00;0.90;;;;;;;21.54;49.01;98383.67;104569;1277;62846;-23
2022/07/10 07:23:11;;;;;;;2.00;1.20;;;;;;;21.61;48.64;98378.48;104260;1277;74925;-23
2022/07/10 07:25:44;;;;;;;3.60;1.00;;;;;;;21.29;48.99;98371.41;104526;1277;77006;-23
2022/07/10 07:28:11;;;;;;;6.50;0.80;;;;;;;21.33;48.07;98374.05;104577;1275;75127;-23
2022/07/10 07:30:38;;;;;;;1.90;0.90;;;;;;;21.26;48.51;98372.54;104690;1275;61993;-23
2022/07/10 07:33:06;;;;;;;2.30;1.00;;;;;;;20.96;49.31;98368.42;104596;1274;62749;-23
2022/07/10 07:35:34;;;;;;;1.40;0.80;;;;;;;21.00;48.78;98369.67;104639;1277;75416;-23
2022/07/10 07:38:02;;;;;;;3.30;0.60;;;;;;;21.04;47.38;98364.86;104670;1274;77175;-23
2022/07/10 07:40:29;;;;;;;3.40;0.70;;;;;;;21.02;47.34;98367.51;104592;1277;75432;-23
2022/07/10 07:42:58;;;;;;;0.70;0.40;;;;;;;21.06;47.39;98365.98;104651;1274;61225;-23
2022/07/10 07:45:26;;;;;;;2.10;0.60;;;;;;;21.08;47.53;98366.64;104666;1275;61141;-23
2022/07/10 07:47:55;;;;;;;1.90;0.70;;;;;;;21.13;47.21;98366.21;104698;1274;74625;-23
2022/07/10 07:50:28;;;;;;;4.60;0.80;;;;;;;21.13;47.15;98368.25;104551;1277;76906;-23
2022/07/10 07:52:55;;;;;;;2.10;0.50;;;;;;;21.25;47.73;98371.08;104572;1274;74322;-23
2022/07/10 07:55:23;;;;;;;0.80;0.60;;;;;;;20.94;46.95;98365.66;104733;1275;63121;-23
2022/07/10 07:57:54;;;;;;;1.70;0.90;;;;;;;21.14;46.91;98368.31;104680;1274;63126;-23
2022/07/10 08:00:23;;;;;;;1.80;0.70;;;;;;;21.32;46.68;98364.11;104681;1274;75853;-23
2022/07/10 08:02:51;;;;;;;1.00;0.60;;;;;;;21.44;47.49;98363.77;104581;1274;77050;-23
2022/07/10 08:05:19;;;;;;;2.90;0.90;;;;;;;21.36;46.26;98364.30;104543;1275;74378;-23
2022/07/10 08:07:51;;;;;;;1.80;0.70;;;;;;;21.19;46.56;98367.60;104538;1275;61658;-23
2022/07/10 08:10:21;;;;;;;2.60;0.70;;;;;;;21.11;46.67;98367.31;104606;1275;62728;-24
2022/07/10 08:12:49;;;;;;;3.20;0.80;;;;;;;21.15;46.01;98365.02;104655;1274;74070;-23
2022/07/10 08:15:19;;;;;;;2.10;0.70;;;;;;;21.48;46.26;98367.58;104717;1275;76010;-23
2022/07/10 08:17:53;;;;;;;2.00;0.70;;;;;;;21.27;46.02;98362.71;104587;1274;74784;-23
2022/07/10 08:20:21;;;;;;;1.20;0.60;;;;;;;21.36;46.51;98359.91;104683;1274;61153;-24
2022/07/10 08:22:48;;;;;;;1.90;0.70;;;;;;;21.27;47.49;98361.60;104622;1278;62013;-24
2022/07/10 08:25:23;;;;;;;1.70;0.70;;;;;;;21.00;47.21;98359.00;104574;1274;76032;-24
2022/07/10 08:27:50;;;;;;;2.70;0.80;;;;;;;20.64;47.77;98351.86;104684;1274;76800;-24
2022/07/10 08:30:20;;;;;;;1.30;0.80;;;;;;;20.38;49.27;98361.18;104523;1274;74530;-24
2022/07/10 08:32:49;;;;;;;3.70;0.80;;;;;;;20.30;49.22;98364.20;104462;1277;63405;-24
2022/07/10 08:35:16;;;;;;;3.30;0.90;;;;;;;20.20;50.75;98363.77;104819;1275;61893;-23
2022/07/10 08:37:45;;;;;;;9.20;0.90;;;;;;;20.27;50.06;98367.02;104625;1274;75571;-23
2022/07/10 08:40:14;;;;;;;1.20;0.60;;;;;;;20.23;49.09;98359.98;104607;1274;76993;-24
2022/07/10 08:42:44;;;;;;;1.70;0.80;;;;;;;20.26;49.25;98363.15;104470;1275;74794;-23
2022/07/10 08:45:12;;;;;;;2.20;0.70;;;;;;;20.40;49.91;98369.55;104844;1271;62019;-23
2022/07/10 08:47:41;;;;;;;1.10;0.70;;;;;;;20.44;50.21;98364.30;104836;1271;61939;-24
2022/07/10 08:50:23;;;;;;;1.40;0.90;;;;;;;20.52;50.23;98370.03;105118;1274;74689;-23
2022/07/10 08:53:00;;;;;;;1.80;0.80;;;;;;;20.62;50.49;98369.84;105100;1271;76921;-24
2022/07/10 08:55:29;;;;;;;5.20;1.20;;;;;;;20.72;50.95;98365.20;105107;1273;75544;-24
2022/07/10 08:57:56;;;;;;;4.60;1.00;;;;;;;20.58;50.91;98365.45;105128;1274;62395;-23
2022/07/10 09:00:25;;;;;;;0.80;0.70;;;;;;;20.55;50.02;98370.75;105036;1271;61057;-23
2022/07/10 09:02:54;;;;;;;2.60;1.10;;;;;;;20.63;50.24;98367.61;104922;1274;76549;-23
2022/07/10 09:05:23;;;;;;;1.70;0.70;;;;;;;20.83;50.61;98365.98;104768;1272;77402;-24
2022/07/10 09:07:53;;;;;;;2.90;0.90;;;;;;;20.92;50.01;98365.06;104717;1271;74266;-24
2022/07/10 09:10:25;;;;;;;2.00;0.90;;;;;;;20.87;49.93;98363.83;104756;1274;61975;-23
2022/07/10 09:12:52;;;;;;;1.60;0.90;;;;;;;20.85;49.86;98358.25;104591;1274;61143;-23
2022/07/10 09:15:24;;;;;;;5.20;0.90;;;;;;;20.68;50.03;98359.98;104810;1274;76712;-23
2022/07/10 09:18:00;;;;;;;2.80;1.10;;;;;;;20.76;50.00;98353.88;105114;1271;77048;-24
2022/07/10 09:20:35;;;;;;;1.90;0.80;;;;;;;20.70;50.41;98349.33;105092;1271;75438;-24
2022/07/10 09:23:22;;;;;;;2.50;0.90;;;;;;;20.89;49.81;98349.16;104807;1271;61153;-23
2022/07/10 09:25:51;;;;;;;1.80;0.70;;;;;;;21.30;48.50;98351.34;104773;1271;62224;-23
2022/07/10 09:28:20;;;;;;;1.70;0.90;;;;;;;21.64;47.57;98347.05;104718;1271;75446;-24
2022/07/10 09:30:48;;;;;;;4.20;0.90;;;;;;;21.98;46.45;98348.99;104886;1272;76697;-23
2022/07/10 09:33:25;;;;;;;3.50;0.90;;;;;;;21.76;46.40;98337.78;105121;1271;73796;-23
2022/07/10 09:36:10;;;;;;;1.30;0.80;;;;;;;22.23;46.14;98343.19;105065;1271;62157;-23
2022/07/10 09:38:44;;;;;;;3.30;0.90;;;;;;;22.66;45.94;98337.80;104953;1274;63048;-24
2022/07/10 09:41:15;;;;;;;4.80;0.80;;;;;;;22.63;44.41;98329.42;105070;1272;75247;-23
2022/07/10 09:43:44;;;;;;;3.50;0.70;;;;;;;22.83;45.06;98326.64;104904;1271;75788;-23
2022/07/10 09:46:11;;;;;;;5.20;0.70;;;;;;;22.26;44.48;98323.27;104910;1274;75138;-23
2022/07/10 09:48:40;;;;;;;3.00;0.90;;;;;;;22.49;44.81;98325.03;105027;1271;62160;-23
2022/07/10 09:51:11;;;;;;;0.90;0.70;;;;;;;22.46;43.71;98327.08;104951;1274;61678;-24
2022/07/10 09:53:42;;;;;;;0.50;0.50;;;;;;;22.41;44.48;98328.67;104986;1274;75529;-24
2022/07/10 09:56:14;;;;;;;1.30;0.60;;;;;;;22.52;43.37;98326.19;104999;1271;75967;-23
2022/07/10 09:58:42;;;;;;;2.60;0.90;;;;;;;22.65;43.42;98326.72;105057;1274;75551;-23
2022/07/10 10:01:09;;;;;;;1.20;0.90;;;;;;;23.36;42.93;98323.00;105025;1271;63114;-24
2022/07/10 10:03:38;;;;;;;5.20;1.00;;;;;;;23.55;40.11;98312.80;104654;1271;63055;-24
2022/07/10 10:06:14;;;;;;;1.30;0.70;;;;;;;22.82;40.43;98318.96;104642;1271;74748;-24
2022/07/10 10:08:51;;;;;;;0.90;0.70;;;;;;;22.62;42.04;98321.00;104637;1272;77596;-24
2022/07/10 10:11:23;;;;;;;2.20;0.60;;;;;;;22.59;42.54;98320.33;104713;1271;74394;-23
2022/07/10 10:13:51;;;;;;;2.20;0.70;;;;;;;22.77;41.50;98315.22;104772;1271;62001;-24
2022/07/10 10:16:19;;;;;;;1.10;0.70;;;;;;;22.83;42.05;98315.48;104994;1271;62442;-24
2022/07/10 10:21:32;;;;;;;2.20;1.00;;;;;;;22.21;42.88;98315.38;104755;1271;75984;-23
2022/07/10 10:24:00;;;;;;;1.10;0.70;;;;;;;22.07;43.90;98316.71;105071;1271;75807;-23
2022/07/10 10:26:29;;;;;;;1.70;0.90;;;;;;;22.13;43.54;98311.59;104978;1274;61415;-24
2022/07/10 10:28:57;;;;;;;1.80;0.80;;;;;;;22.17;43.52;98304.54;104832;1271;61747;-24
2022/07/10 10:31:24;;;;;;;2.60;0.70;;;;;;;22.38;43.70;98310.16;104688;1271;76442;-24
2022/07/10 10:33:55;;;;;;;1.90;0.90;;;;;;;22.36;42.92;98300.97;105034;1272;77089;-24
2022/07/10 10:36:41;;;;;;;8.30;1.00;;;;;;;22.25;41.96;98303.39;104863;1271;75357;-24
2022/07/10 10:39:16;;;;;;;1.40;0.80;;;;;;;22.23;43.42;98305.91;104801;1271;61073;-23
2022/07/10 10:41:53;;;;;;;1.60;0.90;;;;;;;22.09;41.87;98302.65;105036;1271;61851;-24
2022/07/10 10:44:23;;;;;;;3.40;0.90;;;;;;;21.94;41.99;98307.02;104699;1271;76579;-24
2022/07/10 10:46:50;;;;;;;1.50;0.70;;;;;;;22.16;42.22;98298.64;104724;1271;76880;-23
2022/07/10 10:49:19;;;;;;;2.40;0.80;;;;;;;22.54;42.15;98288.87;104831;1271;75699;-23
2022/07/10 10:51:59;;;;;;;2.10;0.70;;;;;;;22.92;41.64;98302.83;104852;1271;61983;-23
2022/07/10 10:54:55;;;;;;;0.70;0.70;;;;;;;23.19;40.38;98295.63;104839;1274;61798;-23
2022/07/10 10:57:36;;;;;;;2.90;0.80;;;;;;;23.15;40.48;98294.17;105057;1271;76533;-23
2022/07/10 11:00:07;;;;;;;1.30;0.60;;;;;;;22.86;40.29;98294.98;104648;1272;76961;-24
2022/07/10 11:02:39;;;;;;;2.00;0.80;;;;;;;22.59;41.01;98287.59;105035;1271;75443;-24
2022/07/10 11:05:18;;;;;;;1.10;0.80;;;;;;;22.47;41.31;98286.52;105071;1271;61006;-23
2022/07/10 11:07:53;;;;;;;2.30;0.80;;;;;;;22.57;41.39;98288.92;105057;1274;61786;-24
2022/07/10 11:10:30;;;;;;;0.70;0.60;;;;;;;22.65;40.68;98287.61;104857;1271;76460;-24
2022/07/10 11:13:05;;;;;;;2.10;0.90;;;;;;;22.48;40.66;98282.75;105076;1271;76894;-24
2022/07/10 11:15:34;;;;;;;1.00;0.80;;;;;;;22.65;41.46;98285.16;104785;1271;75118;-24
2022/07/10 11:18:05;;;;;;;1.20;0.70;;;;;;;22.68;40.03;98287.17;104658;1271;62051;-25
2022/07/10 11:20:49;;;;;;;1.30;0.60;;;;;;;22.71;38.33;98281.05;104742;1274;61249;-24
2022/07/10 11:23:34;;;;;;;1.10;0.70;;;;;;;22.76;39.93;98279.68;104941;1271;75551;-24
2022/07/10 11:26:11;;;;;;;1.40;0.70;;;;;;;22.89;40.61;98271.48;104774;1271;76968;-23
2022/07/10 11:28:46;;;;;;;5.30;0.90;;;;;;;22.86;39.47;98274.65;104776;1272;75440;-23
2022/07/10 11:31:13;;;;;;;2.60;0.80;;;;;;;23.37;39.56;98274.22;104637;1271;61136;-24
2022/07/10 11:33:43;;;;;;;0.70;0.60;;;;;;;23.89;37.70;98271.59;105062;1271;62821;-23
2022/07/10 11:36:15;;;;;;;2.40;0.80;;;;;;;24.29;37.69;98269.55;104866;1271;75560;-23
2022/07/10 11:38:43;;;;;;;2.20;0.90;;;;;;;24.22;36.96;98270.25;104899;1271;77046;-23
2022/07/10 11:41:16;;;;;;;4.10;0.60;;;;;;;24.17;36.69;98273.02;105031;1271;75391;-25
2022/07/10 11:43:51;;;;;;;1.40;0.70;;;;;;;24.04;36.43;98269.30;104874;1271;61055;-23